Time;durP1;ratioP1;P1;durP2;ratioP2;P2;SDS_P1;SDS_P2;PMS_P1;PMS_P2;Temp;Humidity;BMP_temperature;BMP_pressure;BME280_temperature;BME280_humidity;BME280_pressure;Samples;Min_cycle;Max_cycle;Signal;HPM_P1;HPM_P2
2023/10/18 00:00:43;;;;;;;;;;;;;;;8.37;100.00;97820.25;5091245;28;19931;-66
2023/10/18 00:03:11;;;;;;;;;;;;;;;8.37;100.00;97821.06;5100481;28;20011;-66
2023/10/18 00:05:41;;;;;;;;;;;;;;;8.35;100.00;97819.72;5103260;28;20047;-66
2023/10/18 00:08:09;;;;;;;;;;;;;;;8.34;100.00;97812.78;5094151;28;19931;-66
2023/10/18 00:10:36;;;;;;;;;;;;;;;8.33;100.00;97806.66;5100838;28;19925;-66
2023/10/18 00:13:02;;;;;;;;;;;;;;;8.33;100.00;97811.16;5100302;28;19943;-66
2023/10/18 00:15:31;;;;;;;;;;;;;;;8.31;100.00;97813.28;5102105;28;19971;-66
2023/10/18 00:17:57;;;;;;;;;;;;;;;8.32;100.00;97799.75;5103803;28;19924;-66
2023/10/18 00:20:25;;;;;;;;;;;;;;;8.29;100.00;97802.91;5102374;28;19958;-66
2023/10/18 00:22:53;;;;;;;;;;;;;;;8.30;100.00;97806.34;5099880;28;19925;-66
2023/10/18 00:25:20;;;;;;;;;;;;;;;8.29;100.00;97802.91;5100669;28;19936;-66
2023/10/18 00:27:46;;;;;;;;;;;;;;;8.26;100.00;97807.88;5103590;28;19924;-66
2023/10/18 00:30:13;;;;;;;;;;;;;;;8.24;100.00;97802.78;5103502;28;19924;-64
2023/10/18 00:32:42;;;;;;;;;;;;;;;8.24;100.00;97802.78;5091532;28;19924;-64
2023/10/18 00:35:18;;;;;;;;;;;;;;;8.24;100.00;97796.66;5099920;28;19928;-65
2023/10/18 00:37:45;;;;;;;;;;;;;;;8.23;100.00;97798.53;5088107;28;19987;-65
2023/10/18 00:40:20;;;;;;;;;;;;;;;8.22;100.00;97804.09;5103237;28;20434;-65
2023/10/18 00:42:48;;;;;;;;;;;;;;;8.22;100.00;97798.78;5092441;28;19924;-65
2023/10/18 00:45:14;;;;;;;;;;;;;;;7.97;100.00;97791.34;5099736;28;19924;-65
2023/10/18 00:47:42;;;;;;;;;;;;;;;7.96;100.00;97790.53;5103237;28;19924;-65
2023/10/18 00:50:10;;;;;;;;;;;;;;;8.03;100.00;97790.34;5103200;28;20334;-65
2023/10/18 00:52:39;;;;;;;;;;;;;;;8.09;100.00;97786.69;5099790;28;20427;-65
2023/10/18 00:55:06;;;;;;;;;;;;;;;8.09;100.00;97786.69;5099590;28;19936;-65
2023/10/18 00:57:35;;;;;;;;;;;;;;;8.10;100.00;97794.44;5102084;28;19925;-65
2023/10/18 01:00:06;;;;;;;;;;;;;;;8.11;100.00;97780.06;5101852;28;20388;-66
2023/10/18 01:02:36;;;;;;;;;;;;;;;8.10;100.00;97773.16;5100155;28;19984;-65
2023/10/18 01:05:10;;;;;;;;;;;;;;;8.09;100.00;97771.53;5099471;28;19952;-65
2023/10/18 01:07:37;;;;;;;;;;;;;;;8.09;100.00;97765.41;5091638;28;19924;-65
2023/10/18 01:10:07;;;;;;;;;;;;;;;8.09;100.00;97770.72;5102715;28;19924;-65
2023/10/18 01:12:34;;;;;;;;;;;;;;;8.08;100.00;97761.13;5100364;28;19955;-65
2023/10/18 01:15:00;;;;;;;;;;;;;;;8.08;100.00;97758.47;5099202;28;19924;-65
2023/10/18 01:17:27;;;;;;;;;;;;;;;8.05;100.00;97764.28;5100774;28;19992;-65
2023/10/18 01:19:54;;;;;;;;;;;;;;;8.05;100.00;97772.25;5102596;28;19924;-65
2023/10/18 01:22:23;;;;;;;;;;;;;;;8.05;100.00;97758.97;5101569;28;19931;-65
2023/10/18 01:24:51;;;;;;;;;;;;;;;8.02;100.00;97756.81;5099092;28;19928;-65
2023/10/18 01:27:18;;;;;;;;;;;;;;;7.99;100.00;97763.44;5099549;28;19984;-65
2023/10/18 01:29:45;;;;;;;;;;;;;;;7.98;100.00;97753.84;5102669;28;19984;-65
2023/10/18 01:32:13;;;;;;;;;;;;;;;7.99;100.00;97754.66;5102412;28;19927;-65
2023/10/18 01:34:40;;;;;;;;;;;;;;;7.98;100.00;97747.75;5099094;28;20040;-65
2023/10/18 01:37:13;;;;;;;;;;;;;;;7.98;100.00;97743.19;5088240;28;19928;-65
2023/10/18 01:39:40;;;;;;;;;;;;;;;7.98;100.00;97737.88;5090828;28;19936;-65
2023/10/18 01:42:13;;;;;;;;;;;;;;;7.97;100.00;97743.47;5099276;28;20021;-65
2023/10/18 01:44:40;;;;;;;;;;;;;;;7.94;100.00;97741.31;5090885;28;19991;-65
2023/10/18 01:47:07;;;;;;;;;;;;;;;7.94;100.00;97741.31;5099174;28;19932;-65
2023/10/18 01:49:34;;;;;;;;;;;;;;;7.94;100.00;97742.13;5101722;28;19924;-65
2023/10/18 01:52:04;;;;;;;;;;;;;;;7.93;100.00;97731.72;5102516;28;19946;-65
2023/10/18 01:54:32;;;;;;;;;;;;;;;7.94;100.00;97728.00;5100149;28;19925;-65
2023/10/18 01:57:00;;;;;;;;;;;;;;;7.92;100.00;97719.50;5099131;28;19925;-65
2023/10/18 01:59:28;;;;;;;;;;;;;;;7.90;100.00;97724.25;5100595;28;19924;-65
2023/10/18 02:01:57;;;;;;;;;;;;;;;7.91;100.00;97720.53;5102580;28;20022;-65
2023/10/18 02:04:26;;;;;;;;;;;;;;;7.89;100.00;97723.44;5101276;28;19924;-65
2023/10/18 02:06:57;;;;;;;;;;;;;;;7.88;100.00;97711.22;5088397;28;19933;-65
2023/10/18 02:09:25;;;;;;;;;;;;;;;7.87;100.00;97708.78;5100205;28;19970;-65
2023/10/18 02:11:51;;;;;;;;;;;;;;;7.87;100.00;97714.09;5102607;28;19950;-65
2023/10/18 02:14:18;;;;;;;;;;;;;;;7.85;100.00;97710.91;5101770;28;19924;-65
2023/10/18 02:16:46;;;;;;;;;;;;;;;7.86;100.00;97701.88;5098952;28;19935;-65
2023/10/18 02:19:15;;;;;;;;;;;;;;;7.83;100.00;97705.03;5099051;28;19924;-65
2023/10/18 02:21:41;;;;;;;;;;;;;;;7.83;100.00;97703.16;5091020;28;20639;-65
2023/10/18 02:24:11;;;;;;;;;;;;;;;7.82;100.00;97703.44;5099122;28;19924;-65
2023/10/18 02:26:40;;;;;;;;;;;;;;;7.82;100.00;97698.13;5101859;28;19924;-65
2023/10/18 02:29:12;;;;;;;;;;;;;;;7.80;100.00;97698.34;5102224;28;19924;-65
2023/10/18 02:31:38;;;;;;;;;;;;;;;7.79;100.00;97702.09;5101905;28;19932;-65
2023/10/18 02:34:06;;;;;;;;;;;;;;;7.78;100.00;97700.47;5102263;28;20011;-65
2023/10/18 02:36:38;;;;;;;;;;;;;;;7.78;100.00;97704.97;5096855;28;20284;-65
2023/10/18 02:39:05;;;;;;;;;;;;;;;7.78;100.00;97699.66;5102115;28;19947;-65
2023/10/18 02:41:31;;;;;;;;;;;;;;;7.74;100.00;97704.66;5104508;28;19963;-65
2023/10/18 02:43:58;;;;;;;;;;;;;;;7.74;100.00;97698.53;5105744;28;19966;-65
2023/10/18 02:46:25;;;;;;;;;;;;;;;7.75;100.00;97694.84;5104277;28;19931;-65
2023/10/18 02:48:52;;;;;;;;;;;;;;;7.73;100.00;97691.63;5102320;28;19986;-65
2023/10/18 02:51:22;;;;;;;;;;;;;;;7.73;100.00;97686.31;5102629;28;19924;-65
2023/10/18 02:53:49;;;;;;;;;;;;;;;7.72;100.00;97685.50;5105421;28;19920;-65
2023/10/18 02:56:20;;;;;;;;;;;;;;;7.71;100.00;97680.44;5105517;28;19924;-65
2023/10/18 02:58:47;;;;;;;;;;;;;;;7.70;100.00;97692.13;5101908;28;19925;-65
2023/10/18 03:01:18;;;;;;;;;;;;;;;7.69;100.00;97691.34;5101958;28;19927;-65
2023/10/18 03:03:46;;;;;;;;;;;;;;;7.68;100.00;97692.38;5094433;28;19928;-65
2023/10/18 03:06:14;;;;;;;;;;;;;;;7.66;100.00;97686.50;5092412;28;19997;-65
2023/10/18 03:08:44;;;;;;;;;;;;;;;7.64;100.00;97682.50;5101775;28;19920;-65
2023/10/18 03:11:11;;;;;;;;;;;;;;;7.64;100.00;97678.00;5101756;28;19935;-65
2023/10/18 03:13:38;;;;;;;;;;;;;;;7.65;100.00;97682.25;5104884;28;20025;-65
2023/10/18 03:16:06;;;;;;;;;;;;;;;7.65;100.00;97668.16;5104722;28;19954;-65
2023/10/18 03:18:34;;;;;;;;;;;;;;;7.63;100.00;97671.06;5101516;28;19945;-65
2023/10/18 03:21:05;;;;;;;;;;;;;;;7.63;100.00;97670.25;5101413;28;19939;-65
2023/10/18 03:23:31;;;;;;;;;;;;;;;7.61;100.00;97668.66;5104407;28;19924;-65
2023/10/18 03:26:08;;;;;;;;;;;;;;;7.59;100.00;97665.44;5104936;28;19935;-65
2023/10/18 03:28:35;;;;;;;;;;;;;;;7.59;100.00;97660.13;5101531;28;19924;-65
2023/10/18 03:31:05;;;;;;;;;;;;;;;7.60;100.00;97663.59;5100992;28;19920;-65
2023/10/18 03:33:32;;;;;;;;;;;;;;;7.59;100.00;97664.63;5104133;28;19924;-65
2023/10/18 03:36:06;;;;;;;;;;;;;;;7.57;100.00;97656.94;5098288;28;19924;-65
2023/10/18 03:38:39;;;;;;;;;;;;;;;7.57;100.00;97661.44;5100985;28;19925;-65
2023/10/18 03:41:10;;;;;;;;;;;;;;;7.54;100.00;97660.09;5101031;28;19979;-65
2023/10/18 03:43:37;;;;;;;;;;;;;;;7.55;100.00;97667.00;5093108;28;20296;-65
2023/10/18 03:46:13;;;;;;;;;;;;;;;7.53;100.00;97653.16;5101120;28;19924;-65
2023/10/18 03:48:44;;;;;;;;;;;;;;;7.52;100.00;97648.88;5093606;28;19924;-65
2023/10/18 03:51:16;;;;;;;;;;;;;;;7.50;100.00;97637.72;5101309;28;19928;-65
2023/10/18 03:53:43;;;;;;;;;;;;;;;7.49;100.00;97649.38;5104608;28;19924;-65
2023/10/18 03:56:13;;;;;;;;;;;;;;;7.50;100.00;97656.31;5104410;28;19924;-65
2023/10/18 03:58:45;;;;;;;;;;;;;;;7.47;100.00;97640.88;5099997;28;19966;-66
2023/10/18 04:01:19;;;;;;;;;;;;;;;7.48;100.00;97654.97;5101607;28;20304;-65
2023/10/18 04:03:46;;;;;;;;;;;;;;;7.47;100.00;97648.84;5104243;28;19996;-65
2023/10/18 04:06:21;;;;;;;;;;;;;;;7.46;100.00;97649.06;5094329;28;19987;-65
2023/10/18 04:08:47;;;;;;;;;;;;;;;7.46;100.00;97643.75;5100815;28;19925;-65
2023/10/18 04:11:15;;;;;;;;;;;;;;;7.44;100.00;97633.41;5101246;28;19950;-65
2023/10/18 04:13:42;;;;;;;;;;;;;;;7.44;100.00;97637.91;5103961;28;19924;-65
2023/10/18 04:16:11;;;;;;;;;;;;;;;7.42;100.00;97638.16;5104239;28;19920;-65
2023/10/18 04:18:41;;;;;;;;;;;;;;;7.40;100.00;97631.47;5092757;28;19931;-65
2023/10/18 04:21:13;;;;;;;;;;;;;;;7.41;100.00;97633.09;5100538;28;19950;-65
2023/10/18 04:23:45;;;;;;;;;;;;;;;7.38;100.00;97625.63;5093415;28;19963;-65
2023/10/18 04:26:15;;;;;;;;;;;;;;;7.29;100.00;97624.47;5100953;28;19924;-65
2023/10/18 04:28:43;;;;;;;;;;;;;;;7.26;100.00;97627.59;5103741;28;19995;-65
2023/10/18 04:31:11;;;;;;;;;;;;;;;7.29;100.00;97617.28;5103549;28;19924;-65
2023/10/18 04:33:41;;;;;;;;;;;;;;;7.33;100.00;97615.75;5099858;28;19924;-65
2023/10/18 04:36:09;;;;;;;;;;;;;;;7.26;100.00;97607.16;5095540;28;19925;-65
2023/10/18 04:38:42;;;;;;;;;;;;;;;7.31;100.00;97614.38;5091762;28;19924;-66
2023/10/18 04:41:10;;;;;;;;;;;;;;;7.32;100.00;97613.34;5099860;28;20027;-65
2023/10/18 04:43:42;;;;;;;;;;;;;;;7.32;100.00;97614.13;5091054;28;20213;-65
2023/10/18 04:46:15;;;;;;;;;;;;;;;7.23;100.00;97605.00;5099341;28;19924;-65
2023/10/18 04:51:33;;;;;;;;;;;;;;;7.09;100.00;97598.47;5101710;28;19988;-66
2023/10/18 04:54:03;;;;;;;;;;;;;;;6.89;100.00;97591.06;5102571;28;19924;-65
2023/10/18 04:56:32;;;;;;;;;;;;;;;6.78;100.00;97584.03;5100333;28;19924;-65
2023/10/18 04:59:06;;;;;;;;;;;;;;;6.99;100.00;97590.41;5099594;28;19942;-65
2023/10/18 05:01:36;;;;;;;;;;;;;;;6.86;100.00;97580.16;5102503;28;19984;-65
2023/10/18 05:04:18;;;;;;;;;;;;;;;6.92;100.00;97587.94;5102024;28;19924;-65
2023/10/18 05:06:44;;;;;;;;;;;;;;;7.09;100.00;97579.09;5083152;28;19932;-66
2023/10/18 05:09:12;;;;;;;;;;;;;;;7.15;100.00;97588.72;5098489;28;19946;-66
2023/10/18 05:11:47;;;;;;;;;;;;;;;7.18;100.00;97583.69;5102932;28;19927;-66
2023/10/18 05:14:19;;;;;;;;;;;;;;;7.21;100.00;97577.09;5102215;28;19924;-66
2023/10/18 05:16:47;;;;;;;;;;;;;;;7.23;100.00;97588.28;5099379;28;19935;-66
2023/10/18 05:19:14;;;;;;;;;;;;;;;7.21;100.00;97588.50;5099021;28;19928;-66
2023/10/18 05:21:40;;;;;;;;;;;;;;;7.21;100.00;97591.16;5102798;28;19924;-66
2023/10/18 05:24:10;;;;;;;;;;;;;;;7.22;100.00;97590.13;5102885;28;19991;-65
2023/10/18 05:26:37;;;;;;;;;;;;;;;7.21;100.00;97580.53;5091272;28;19924;-66
2023/10/18 05:29:05;;;;;;;;;;;;;;;7.18;100.00;97574.94;5099343;28;19924;-65
2023/10/18 05:31:49;;;;;;;;;;;;;;;7.08;100.00;97567.66;5102113;28;20049;-65
2023/10/18 05:34:20;;;;;;;;;;;;;;;7.12;100.00;97574.06;5101767;28;19920;-65
2023/10/18 05:36:56;;;;;;;;;;;;;;;7.14;100.00;97574.63;5089529;28;19924;-65
2023/10/18 05:39:28;;;;;;;;;;;;;;;7.15;100.00;97586.84;5100824;28;20393;-65
2023/10/18 05:41:59;;;;;;;;;;;;;;;7.16;100.00;97585.81;5102398;28;19963;-65
2023/10/18 05:44:27;;;;;;;;;;;;;;;7.18;100.00;97583.69;5100463;28;19928;-65
2023/10/18 05:46:54;;;;;;;;;;;;;;;7.19;100.00;97579.19;5099123;28;19931;-65
2023/10/18 05:49:24;;;;;;;;;;;;;;;7.18;100.00;97593.53;5100397;28;19924;-65
2023/10/18 05:51:55;;;;;;;;;;;;;;;7.18;100.00;97583.69;5102538;28;19996;-65
2023/10/18 05:54:21;;;;;;;;;;;;;;;7.16;100.00;97592.97;5100854;28;19924;-65
2023/10/18 05:56:49;;;;;;;;;;;;;;;7.14;100.00;97593.22;5098918;28;19924;-66
2023/10/18 05:59:31;;;;;;;;;;;;;;;7.13;100.00;97602.22;5099762;28;19924;-65
2023/10/18 06:02:00;;;;;;;;;;;;;;;7.14;100.00;97589.75;5102642;28;19991;-65
2023/10/18 06:04:37;;;;;;;;;;;;;;;7.05;100.00;97590.22;5101611;28;19924;-65
2023/10/18 06:07:09;;;;;;;;;;;;;;;7.04;100.00;97588.59;5094041;28;19960;-65
2023/10/18 06:09:44;;;;;;;;;;;;;;;7.05;100.00;97592.06;5094701;28;19925;-65
2023/10/18 06:12:13;;;;;;;;;;;;;;;7.05;100.00;97592.06;5102742;28;20028;-65
2023/10/18 06:14:40;;;;;;;;;;;;;;;7.11;100.00;97593.72;5106241;28;19924;-68
2023/10/18 06:17:08;;;;;;;;;;;;;;;7.04;100.00;97583.28;5106096;28;19962;-69
2023/10/18 06:19:37;;;;;;;;;;;;;;;6.71;100.00;97577.31;5093006;28;19924;-68
2023/10/18 06:22:15;;;;;;;;;;;;;;;6.61;100.00;97582.47;5102679;28;19921;-69
2023/10/18 06:24:42;;;;;;;;;;;;;;;6.80;100.00;97573.16;5094868;28;19925;-69
2023/10/18 06:27:15;;;;;;;;;;;;;;;7.02;100.00;97592.56;5102565;28;20011;-69
2023/10/18 06:29:42;;;;;;;;;;;;;;;7.04;100.00;97588.59;5095247;28;19956;-69
2023/10/18 06:32:13;;;;;;;;;;;;;;;7.08;100.00;97578.28;5102174;28;19928;-69
2023/10/18 06:34:43;;;;;;;;;;;;;;;7.11;100.00;97575.13;5094571;28;19978;-69
2023/10/18 06:37:20;;;;;;;;;;;;;;;7.17;100.00;97571.47;5092798;28;19931;-68
2023/10/18 06:39:47;;;;;;;;;;;;;;;7.16;100.00;97566.41;5095663;28;19931;-68
2023/10/18 06:42:13;;;;;;;;;;;;;;;6.98;100.00;97564.88;5103001;28;19924;-69
2023/10/18 06:44:43;;;;;;;;;;;;;;;7.05;100.00;97568.16;5105672;28;19934;-69
2023/10/18 06:47:13;;;;;;;;;;;;;;;7.15;100.00;97570.13;5105674;28;19924;-67
2023/10/18 06:49:42;;;;;;;;;;;;;;;7.20;100.00;97565.69;5094240;28;19928;-68
2023/10/18 06:52:09;;;;;;;;;;;;;;;7.28;100.00;97569.72;5101503;28;19993;-68
2023/10/18 06:54:38;;;;;;;;;;;;;;;7.30;100.00;97551.69;5093331;28;19924;-68
2023/10/18 06:57:15;;;;;;;;;;;;;;;7.31;100.00;97551.44;5101785;28;19924;-68
2023/10/18 06:59:44;;;;;;;;;;;;;;;7.35;100.00;97557.88;5094446;28;19925;-67
2023/10/18 07:02:12;;;;;;;;;;;;;;;7.36;100.00;97562.13;5101545;28;19928;-68
2023/10/18 07:04:38;;;;;;;;;;;;;;;7.38;100.00;97564.53;5105216;28;19943;-68
2023/10/18 07:07:11;;;;;;;;;;;;;;;7.39;100.00;97563.47;5092778;28;19964;-68
2023/10/18 07:09:37;;;;;;;;;;;;;;;7.39;100.00;97563.47;5093662;28;19925;-68
2023/10/18 07:12:04;;;;;;;;;;;;;;;7.39;100.00;97563.47;5101716;28;19924;-68
2023/10/18 07:14:31;;;;;;;;;;;;;;;7.17;100.00;97550.25;5104473;28;19963;-67
2023/10/18 07:17:00;;;;;;;;;;;;;;;7.13;100.00;97554.44;5104705;28;19946;-68
2023/10/18 07:19:29;;;;;;;;;;;;;;;7.24;100.00;97542.09;5102481;28;19969;-68
2023/10/18 07:21:56;;;;;;;;;;;;;;;7.01;100.00;97548.47;5101504;28;20038;-68
2023/10/18 07:24:32;;;;;;;;;;;;;;;6.79;100.00;97542.38;5103080;28;19924;-69
2023/10/18 07:26:59;;;;;;;;;;;;;;;6.57;100.00;97545.00;5104844;28;19924;-69
2023/10/18 07:29:27;;;;;;;;;;;;;;;6.56;100.00;97542.63;5102650;28;19924;-69
2023/10/18 07:31:53;;;;;;;;;;;;;;;6.96;100.00;97548.41;5100606;28;19924;-68
2023/10/18 07:34:28;;;;;;;;;;;;;;;7.01;100.00;97548.47;5101882;28;19924;-68
2023/10/18 07:36:55;;;;;;;;;;;;;;;7.24;100.00;97553.47;5092909;28;19947;-68
2023/10/18 07:39:24;;;;;;;;;;;;;;;7.24;100.00;97558.00;5102076;28;19931;-68
2023/10/18 07:41:52;;;;;;;;;;;;;;;7.40;100.00;97554.44;5105042;28;19967;-68
2023/10/18 07:44:19;;;;;;;;;;;;;;;7.47;100.00;97555.03;5101413;28;19999;-68
2023/10/18 07:46:45;;;;;;;;;;;;;;;7.52;100.00;97547.13;5100447;28;19950;-68
2023/10/18 07:49:14;;;;;;;;;;;;;;;7.54;100.00;97547.69;5100338;28;20019;-68
2023/10/18 07:51:49;;;;;;;;;;;;;;;7.35;100.00;97549.09;5103709;28;19928;-68
2023/10/18 07:54:16;;;;;;;;;;;;;;;7.24;100.00;97544.75;5102900;28;19983;-68
2023/10/18 07:56:49;;;;;;;;;;;;;;;7.37;100.00;97529.19;5099105;28;20890;-68
2023/10/18 07:59:29;;;;;;;;;;;;;;;7.13;100.00;97538.50;5101007;28;19925;-68
2023/10/18 08:02:07;;;;;;;;;;;;;;;7.21;100.00;97524.75;5104278;28;19950;-69
2023/10/18 08:04:36;;;;;;;;;;;;;;;7.30;100.00;97525.13;5100776;28;19936;-69
2023/10/18 08:07:03;;;;;;;;;;;;;;;7.29;100.00;97527.00;5091017;28;19996;-69
2023/10/18 08:09:29;;;;;;;;;;;;;;;7.36;100.00;97522.28;5103290;28;19929;-69
2023/10/18 08:11:56;;;;;;;;;;;;;;;7.15;100.00;97525.78;5104152;28;20000;-69
2023/10/18 08:14:26;;;;;;;;;;;;;;;7.02;100.00;97526.19;5100972;28;19924;-69
2023/10/18 08:16:55;;;;;;;;;;;;;;;6.85;100.00;97528.09;5100413;28;19924;-69
2023/10/18 08:19:25;;;;;;;;;;;;;;;6.82;100.00;97513.47;5102386;28;19951;-68
2023/10/18 08:22:21;;;;;;;;;;;;;;;6.80;100.00;97518.25;5104045;28;19924;-68
2023/10/18 08:24:49;;;;;;;;;;;;;;;7.00;100.00;97518.47;5093319;28;19925;-68
2023/10/18 08:27:16;;;;;;;;;;;;;;;7.05;100.00;97515.06;5100269;28;19940;-68
2023/10/18 08:29:46;;;;;;;;;;;;;;;7.06;100.00;97522.75;5103655;28;19924;-68
2023/10/18 08:32:14;;;;;;;;;;;;;;;7.15;100.00;97523.13;5103013;28;19979;-68
2023/10/18 08:34:41;;;;;;;;;;;;;;;7.14;100.00;97521.53;5100298;28;19981;-68
2023/10/18 08:37:11;;;;;;;;;;;;;;;7.21;100.00;97508.84;5090695;28;20331;-68
2023/10/18 08:39:39;;;;;;;;;;;;;;;7.12;100.00;97505.03;5091880;28;19971;-68
2023/10/18 08:42:08;;;;;;;;;;;;;;;7.08;100.00;97506.59;5100053;28;20470;-68
2023/10/18 08:44:35;;;;;;;;;;;;;;;7.15;100.00;97511.72;5102150;28;19991;-68
2023/10/18 08:47:11;;;;;;;;;;;;;;;7.24;100.00;97510.22;5103528;28;19928;-68
2023/10/18 08:49:44;;;;;;;;;;;;;;;7.12;100.00;97509.56;5091923;28;19980;-68
2023/10/18 08:52:11;;;;;;;;;;;;;;;7.17;100.00;97502.44;5099618;28;19925;-68
2023/10/18 08:54:41;;;;;;;;;;;;;;;7.16;100.00;97503.47;5102544;28;19963;-68
2023/10/18 08:57:09;;;;;;;;;;;;;;;7.35;100.00;97494.09;5102934;28;19924;-68
2023/10/18 08:59:46;;;;;;;;;;;;;;;7.30;100.00;97491.41;5091306;28;19931;-68
2023/10/18 09:02:17;;;;;;;;;;;;;;;7.34;100.00;97481.88;5099686;28;19925;-69
2023/10/18 09:04:44;;;;;;;;;;;;;;;7.39;100.00;97467.84;5102829;28;19961;-68
2023/10/18 09:07:21;;;;;;;;;;;;;;;7.37;100.00;97476.06;5090379;28;19924;-68
2023/10/18 09:09:53;;;;;;;;;;;;;;;7.45;100.00;97480.13;5103231;28;20311;-68
2023/10/18 09:12:31;;;;;;;;;;;;;;;7.54;100.00;97486.56;5101901;28;19924;-69
2023/10/18 09:14:58;;;;;;;;;;;;;;;7.63;100.00;97476.25;5099399;28;19975;-68
2023/10/18 09:17:26;;;;;;;;;;;;;;;7.65;100.00;97479.47;5101486;28;19935;-68
2023/10/18 09:19:55;;;;;;;;;;;;;;;7.59;100.00;97487.41;5103053;28;19931;-68
2023/10/18 09:22:22;;;;;;;;;;;;;;;7.67;100.00;97490.66;5101749;28;19982;-69
2023/10/18 09:24:48;;;;;;;;;;;;;;;7.64;100.00;97481.34;5099831;28;19924;-68
2023/10/18 09:27:14;;;;;;;;;;;;;;;7.70;100.00;97482.16;5100613;28;19924;-67
2023/10/18 09:29:42;;;;;;;;;;;;;;;7.95;100.00;97474.38;5103844;28;19931;-68
2023/10/18 09:32:19;;;;;;;;;;;;;;;8.06;100.00;97468.06;5102941;28;19924;-68
2023/10/18 09:34:47;;;;;;;;;;;;;;;8.14;100.00;97465.69;5092614;28;19920;-68
2023/10/18 09:37:15;;;;;;;;;;;;;;;8.14;100.00;97465.69;5090760;28;19947;-68
2023/10/18 09:39:44;;;;;;;;;;;;;;;8.14;100.00;97478.19;5107124;28;19983;-68
2023/10/18 09:42:12;;;;;;;;;;;;;;;8.22;100.00;97477.72;5109852;28;19925;-69
2023/10/18 09:44:41;;;;;;;;;;;;;;;8.31;100.00;97465.56;5098688;28;19912;-69
2023/10/18 09:47:08;;;;;;;;;;;;;;;8.31;100.00;97462.09;5105454;28;19924;-68
2023/10/18 09:49:34;;;;;;;;;;;;;;;8.27;100.00;97464.44;5109845;28;19989;-69
2023/10/18 09:52:07;;;;;;;;;;;;;;;8.23;100.00;97452.72;5109742;28;19960;-69
2023/10/18 09:54:35;;;;;;;;;;;;;;;8.31;100.00;97443.47;5106804;28;19947;-69
2023/10/18 09:57:02;;;;;;;;;;;;;;;8.42;100.00;97448.56;5106232;28;19932;-69
2023/10/18 09:59:31;;;;;;;;;;;;;;;8.43;100.00;97447.53;5107485;28;19921;-69
2023/10/18 10:02:07;;;;;;;;;;;;;;;8.49;100.00;97456.31;5109289;28;19920;-69
2023/10/18 10:04:35;;;;;;;;;;;;;;;8.55;100.00;97445.44;5106355;28;19970;-68
2023/10/18 10:09:49;;;;;;;;;;;;;;;8.69;100.00;97440.44;5099114;28;19951;-68
2023/10/18 10:12:16;;;;;;;;;;;;;;;8.74;100.00;97428.97;5106115;28;19933;-68
2023/10/18 10:14:43;;;;;;;;;;;;;;;8.82;100.00;97425.81;5109122;28;19924;-68
2023/10/18 10:17:11;;;;;;;;;;;;;;;8.84;100.00;97426.34;5109234;28;19924;-68
2023/10/18 10:19:40;;;;;;;;;;;;;;;8.92;100.00;97423.16;5098013;28;19946;-68
2023/10/18 10:22:11;;;;;;;;;;;;;;;9.03;100.00;97419.47;5105837;28;19913;-68
2023/10/18 10:24:43;;;;;;;;;;;;;;;9.20;100.00;97418.13;5097857;28;19925;-68
2023/10/18 10:27:21;;;;;;;;;;;;;;;9.28;100.00;97405.38;5105538;28;19935;-68
2023/10/18 10:29:56;;;;;;;;;;;;;;;9.36;100.00;97404.81;5098923;28;19924;-68
2023/10/18 10:32:23;;;;;;;;;;;;;;;9.46;100.00;97399.50;5106768;28;19939;-69
2023/10/18 10:34:53;;;;;;;;;;;;;;;9.46;100.00;97394.16;5107735;28;19963;-69
2023/10/18 10:37:23;;;;;;;;;;;;;;;9.47;100.00;97382.44;5095357;28;19936;-69
2023/10/18 10:39:50;;;;;;;;;;;;;;;9.43;100.00;97379.50;5108899;28;19924;-68
2023/10/18 10:42:41;;;;;;;;;;;;;;;9.50;100.00;97381.91;5107944;28;19920;-68
2023/10/18 10:45:11;;;;;;;;;;;;;;;9.59;100.00;97370.41;5105371;28;19924;-68
2023/10/18 10:47:50;;;;;;;;;;;;;;;9.64;100.00;97372.28;5097044;28;19971;-68
2023/10/18 10:50:31;;;;;;;;;;;;;;;9.78;100.00;97374.09;5104920;28;19950;-68
2023/10/18 10:53:04;;;;;;;;;;;;;;;9.90;100.00;97367.69;5105335;28;19932;-69
2023/10/18 10:55:34;;;;;;;;;;;;;;;9.92;100.00;97357.53;5102395;28;19947;-69
2023/10/18 10:58:02;;;;;;;;;;;;;;;9.92;100.00;97354.88;5101911;28;19931;-69
2023/10/18 11:00:39;;;;;;;;;;;;;;;9.89;100.00;97342.88;5104395;28;19925;-69
2023/10/18 11:03:53;;;;;;;;;;;;;;;9.88;100.00;97343.13;5105181;28;19931;-69
2023/10/18 11:06:23;;;;;;;;;;;;;;;9.90;100.00;97333.03;5052178;28;19956;-68
2023/10/18 11:08:51;;;;;;;;;;;;;;;9.99;100.00;97326.84;5059422;28;19921;-68
2023/10/18 11:11:20;;;;;;;;;;;;;;;10.16;100.00;97315.84;5084009;28;19924;-68
2023/10/18 11:13:47;;;;;;;;;;;;;;;10.20;100.00;97316.91;5105017;28;19924;-68
2023/10/18 11:16:15;;;;;;;;;;;;;;;10.16;100.00;97310.50;5104319;28;19946;-68
2023/10/18 11:18:42;;;;;;;;;;;;;;;10.26;100.00;97299.78;5101711;28;19959;-68
2023/10/18 11:21:18;;;;;;;;;;;;;;;10.30;100.00;97300.84;5101978;28;19960;-68
2023/10/18 11:23:46;;;;;;;;;;;;;;;10.29;100.00;97300.03;5095054;28;19936;-68
2023/10/18 11:26:20;;;;;;;;;;;;;;;10.34;100.00;97299.19;5100917;28;19951;-69
2023/10/18 11:28:47;;;;;;;;;;;;;;;10.37;100.00;97295.97;5105321;28;19963;-68
2023/10/18 11:31:14;;;;;;;;;;;;;;;10.47;100.00;97290.59;5104385;28;20053;-68
2023/10/18 11:33:54;;;;;;;;;;;;;;;10.52;100.00;97285.19;5101358;28;19932;-68
2023/10/18 11:36:21;;;;;;;;;;;;;;;10.59;100.00;97276.88;5096543;28;19933;-68
2023/10/18 11:41:34;;;;;;;;;;;;;;;10.65;100.00;97281.13;5103725;28;19929;-68
2023/10/18 11:44:01;;;;;;;;;;;;;;;10.72;100.00;97271.72;5105043;28;19924;-68
2023/10/18 11:46:27;;;;;;;;;;;;;;;10.74;100.00;97264.22;5102765;28;19971;-69
2023/10/18 11:48:55;;;;;;;;;;;;;;;10.91;100.00;97263.03;5102434;28;19924;-68
2023/10/18 11:51:21;;;;;;;;;;;;;;;10.98;100.00;97250.94;5102436;28;19924;-69
2023/10/18 11:53:51;;;;;;;;;;;;;;;11.04;100.00;97246.34;5105041;28;19935;-69
2023/10/18 11:56:17;;;;;;;;;;;;;;;11.03;100.00;97245.53;5103716;28;19924;-69
2023/10/18 11:58:59;;;;;;;;;;;;;;;11.04;100.00;97246.34;5100807;28;19991;-68
2023/10/18 12:01:31;;;;;;;;;;;;;;;11.08;100.00;97239.38;5102868;28;20001;-68
2023/10/18 12:03:58;;;;;;;;;;;;;;;11.16;100.00;97238.75;5103363;28;19930;-69
2023/10/18 12:06:25;;;;;;;;;;;;;;;11.17;100.00;97229.66;5092479;28;19932;-69
2023/10/18 12:09:09;;;;;;;;;;;;;;;11.27;100.00;97218.84;5100698;28;19924;-69
2023/10/18 12:11:37;;;;;;;;;;;;;;;11.34;100.00;97224.66;5091204;28;19978;-67
2023/10/18 12:14:07;;;;;;;;;;;;;;;11.41;98.82;97213.63;5100729;28;19966;-68
2023/10/18 12:16:34;;;;;;;;;;;;;;;11.40;97.99;97202.13;5103751;28;19920;-68
2023/10/18 12:19:00;;;;;;;;;;;;;;;11.51;97.99;97214.31;5104125;28;19935;-68
2023/10/18 12:21:29;;;;;;;;;;;;;;;11.57;98.23;97197.13;5101701;28;19928;-69
2023/10/18 12:23:55;;;;;;;;;;;;;;;11.54;98.27;97186.19;5100352;28;19951;-69
2023/10/18 12:26:24;;;;;;;;;;;;;;;11.65;96.78;97187.66;5101854;28;19930;-69
2023/10/18 12:28:51;;;;;;;;;;;;;;;11.60;97.00;97172.50;5103808;28;20493;-69
2023/10/18 12:31:26;;;;;;;;;;;;;;;11.75;96.93;97174.19;5102496;28;19950;-68
2023/10/18 12:33:57;;;;;;;;;;;;;;;11.91;97.29;97173.69;5100435;28;19963;-68
2023/10/18 12:36:32;;;;;;;;;;;;;;;12.05;96.80;97171.09;5095281;28;20000;-69
2023/10/18 12:38:58;;;;;;;;;;;;;;;12.16;95.88;97164.47;5100583;28;19928;-68
2023/10/18 12:41:31;;;;;;;;;;;;;;;12.21;94.85;97169.78;5102373;28;19971;-68
2023/10/18 12:43:58;;;;;;;;;;;;;;;12.07;94.51;97162.78;5103523;28;19924;-68
2023/10/18 12:46:26;;;;;;;;;;;;;;;12.15;94.03;97154.88;5101415;28;19924;-68
2023/10/18 12:48:52;;;;;;;;;;;;;;;12.17;94.27;97146.53;5099951;28;19931;-68
2023/10/18 12:51:20;;;;;;;;;;;;;;;12.19;94.35;97139.81;5100723;28;19956;-68
2023/10/18 12:53:47;;;;;;;;;;;;;;;12.24;93.30;97130.91;5103193;28;19924;-69
2023/10/18 12:56:31;;;;;;;;;;;;;;;12.28;93.69;97132.72;5102571;28;19988;-69
2023/10/18 12:58:58;;;;;;;;;;;;;;;12.32;91.67;97130.25;5099768;28;19928;-69
2023/10/18 13:01:32;;;;;;;;;;;;;;;11.98;92.39;97125.16;5101442;28;19925;-69
2023/10/18 13:03:58;;;;;;;;;;;;;;;12.10;92.96;97114.03;5103154;28;19920;-69
2023/10/18 13:06:30;;;;;;;;;;;;;;;12.07;92.85;97109.25;5091414;28;19947;-68